sensor_id;sensor_type;location;lat;lon;timestamp;temperature;humidity
19090;DHT22;9677;50.656;13.064;2022-07-06T00:00:03;23.30;35.60
19090;DHT22;9677;50.656;13.064;2022-07-06T00:02:32;23.30;35.80
19090;DHT22;9677;50.656;13.064;2022-07-06T00:05:01;23.40;35.70
19090;DHT22;9677;50.656;13.064;2022-07-06T00:07:29;23.40;35.80
19090;DHT22;9677;50.656;13.064;2022-07-06T00:09:57;23.20;35.70
19090;DHT22;9677;50.656;13.064;2022-07-06T00:12:26;23.20;36.40
19090;DHT22;9677;50.656;13.064;2022-07-06T00:14:54;23.20;35.80
19090;DHT22;9677;50.656;13.064;2022-07-06T00:17:24;23.10;35.80
19090;DHT22;9677;50.656;13.064;2022-07-06T00:19:52;23.10;35.80
19090;DHT22;9677;50.656;13.064;2022-07-06T00:22:21;23.00;35.70
19090;DHT22;9677;50.656;13.064;2022-07-06T00:24:49;23.00;36.00
19090;DHT22;9677;50.656;13.064;2022-07-06T00:27:17;23.10;36.20
19090;DHT22;9677;50.656;13.064;2022-07-06T00:29:46;23.00;36.20
19090;DHT22;9677;50.656;13.064;2022-07-06T00:32:14;23.20;36.30
19090;DHT22;9677;50.656;13.064;2022-07-06T00:34:44;22.90;36.10
19090;DHT22;9677;50.656;13.064;2022-07-06T00:37:13;22.90;36.40
19090;DHT22;9677;50.656;13.064;2022-07-06T00:39:42;23.10;36.30
19090;DHT22;9677;50.656;13.064;2022-07-06T00:42:10;22.80;36.30
19090;DHT22;9677;50.656;13.064;2022-07-06T00:44:38;22.90;36.40
19090;DHT22;9677;50.656;13.064;2022-07-06T00:47:07;22.90;36.60
19090;DHT22;9677;50.656;13.064;2022-07-06T00:49:35;22.80;36.60
19090;DHT22;9677;50.656;13.064;2022-07-06T00:52:23;22.90;36.60
19090;DHT22;9677;50.656;13.064;2022-07-06T00:54:52;22.90;36.80
19090;DHT22;9677;50.656;13.064;2022-07-06T00:57:20;22.80;36.80
19090;DHT22;9677;50.656;13.064;2022-07-06T00:59:49;22.90;36.90
19090;DHT22;9677;50.656;13.064;2022-07-06T01:02:18;22.80;36.90
19090;DHT22;9677;50.656;13.064;2022-07-06T01:04:50;22.80;36.90
19090;DHT22;9677;50.656;13.064;2022-07-06T01:07:19;22.80;37.00
19090;DHT22;9677;50.656;13.064;2022-07-06T01:09:48;22.80;37.00
19090;DHT22;9677;50.656;13.064;2022-07-06T01:12:17;22.80;37.30
19090;DHT22;9677;50.656;13.064;2022-07-06T01:14:46;23.00;37.40
19090;DHT22;9677;50.656;13.064;2022-07-06T01:17:16;22.80;37.20
19090;DHT22;9677;50.656;13.064;2022-07-06T01:19:45;22.70;37.30
19090;DHT22;9677;50.656;13.064;2022-07-06T01:22:15;22.80;37.30
19090;DHT22;9677;50.656;13.064;2022-07-06T01:24:43;22.70;37.40
19090;DHT22;9677;50.656;13.064;2022-07-06T01:27:12;22.70;37.40
19090;DHT22;9677;50.656;13.064;2022-07-06T01:29:40;22.70;37.40
19090;DHT22;9677;50.656;13.064;2022-07-06T01:32:09;22.60;37.40
19090;DHT22;9677;50.656;13.064;2022-07-06T01:34:37;22.60;37.40
19090;DHT22;9677;50.656;13.064;2022-07-06T01:37:05;22.60;37.50
19090;DHT22;9677;50.656;13.064;2022-07-06T01:39:35;22.60;37.50
19090;DHT22;9677;50.656;13.064;2022-07-06T01:42:05;22.60;37.70
19090;DHT22;9677;50.656;13.064;2022-07-06T01:44:33;22.50;37.60
19090;DHT22;9677;50.656;13.064;2022-07-06T01:47:02;22.50;37.90
19090;DHT22;9677;50.656;13.064;2022-07-06T01:49:31;22.50;37.80
19090;DHT22;9677;50.656;13.064;2022-07-06T01:51:59;22.60;37.90
19090;DHT22;9677;50.656;13.064;2022-07-06T01:54:28;22.50;37.90
19090;DHT22;9677;50.656;13.064;2022-07-06T01:56:58;22.40;37.90
19090;DHT22;9677;50.656;13.064;2022-07-06T01:59:26;22.40;38.00
19090;DHT22;9677;50.656;13.064;2022-07-06T02:01:54;22.40;38.00
19090;DHT22;9677;50.656;13.064;2022-07-06T02:04:23;22.60;38.30
19090;DHT22;9677;50.656;13.064;2022-07-06T02:06:51;22.30;38.10
19090;DHT22;9677;50.656;13.064;2022-07-06T02:09:20;22.30;38.20
19090;DHT22;9677;50.656;13.064;2022-07-06T02:11:49;22.40;38.40
19090;DHT22;9677;50.656;13.064;2022-07-06T02:14:18;22.50;38.60
19090;DHT22;9677;50.656;13.064;2022-07-06T02:16:47;22.20;38.60
19090;DHT22;9677;50.656;13.064;2022-07-06T02:19:17;22.30;38.60
19090;DHT22;9677;50.656;13.064;2022-07-06T02:21:46;22.00;38.70
19090;DHT22;9677;50.656;13.064;2022-07-06T02:24:14;22.00;38.80
19090;DHT22;9677;50.656;13.064;2022-07-06T02:26:43;21.80;39.10
19090;DHT22;9677;50.656;13.064;2022-07-06T02:29:12;21.80;39.10
19090;DHT22;9677;50.656;13.064;2022-07-06T02:31:42;21.70;39.30
19090;DHT22;9677;50.656;13.064;2022-07-06T02:34:10;21.80;39.60
19090;DHT22;9677;50.656;13.064;2022-07-06T02:36:39;21.60;39.60
19090;DHT22;9677;50.656;13.064;2022-07-06T02:39:07;21.60;39.70
19090;DHT22;9677;50.656;13.064;2022-07-06T02:41:36;21.60;39.80
19090;DHT22;9677;50.656;13.064;2022-07-06T02:44:04;21.60;39.80
19090;DHT22;9677;50.656;13.064;2022-07-06T02:46:32;21.50;39.80
19090;DHT22;9677;50.656;13.064;2022-07-06T02:49:02;21.50;40.00
19090;DHT22;9677;50.656;13.064;2022-07-06T02:51:30;21.60;40.30
19090;DHT22;9677;50.656;13.064;2022-07-06T02:53:59;21.50;40.20
19090;DHT22;9677;50.656;13.064;2022-07-06T02:56:28;21.50;40.20
19090;DHT22;9677;50.656;13.064;2022-07-06T02:58:57;21.50;40.20
19090;DHT22;9677;50.656;13.064;2022-07-06T03:01:26;21.50;40.10
19090;DHT22;9677;50.656;13.064;2022-07-06T03:03:54;21.50;40.10
19090;DHT22;9677;50.656;13.064;2022-07-06T03:06:26;21.30;40.00
19090;DHT22;9677;50.656;13.064;2022-07-06T03:08:54;21.30;40.10
19090;DHT22;9677;50.656;13.064;2022-07-06T03:11:23;21.20;40.20
19090;DHT22;9677;50.656;13.064;2022-07-06T03:13:51;21.20;40.30
19090;DHT22;9677;50.656;13.064;2022-07-06T03:16:20;21.10;40.40
19090;DHT22;9677;50.656;13.064;2022-07-06T03:18:48;21.10;40.60
19090;DHT22;9677;50.656;13.064;2022-07-06T03:21:17;21.10;40.60
19090;DHT22;9677;50.656;13.064;2022-07-06T03:23:47;21.10;40.70
19090;DHT22;9677;50.656;13.064;2022-07-06T03:26:15;21.00;40.80
19090;DHT22;9677;50.656;13.064;2022-07-06T03:28:44;21.00;40.90
19090;DHT22;9677;50.656;13.064;2022-07-06T03:31:13;21.00;40.90
19090;DHT22;9677;50.656;13.064;2022-07-06T03:33:42;21.00;41.00
19090;DHT22;9677;50.656;13.064;2022-07-06T03:36:10;20.90;41.00
19090;DHT22;9677;50.656;13.064;2022-07-06T03:38:39;20.90;41.00
19090;DHT22;9677;50.656;13.064;2022-07-06T03:41:09;20.90;41.10
19090;DHT22;9677;50.656;13.064;2022-07-06T03:43:37;20.90;41.20
19090;DHT22;9677;50.656;13.064;2022-07-06T03:46:05;20.90;41.20
19090;DHT22;9677;50.656;13.064;2022-07-06T03:48:34;20.80;41.20
19090;DHT22;9677;50.656;13.064;2022-07-06T03:51:05;20.80;41.20
19090;DHT22;9677;50.656;13.064;2022-07-06T03:53:34;20.80;41.30
19090;DHT22;9677;50.656;13.064;2022-07-06T03:56:02;20.80;41.30
19090;DHT22;9677;50.656;13.064;2022-07-06T03:58:50;20.80;41.50
19090;DHT22;9677;50.656;13.064;2022-07-06T04:01:19;20.70;41.50
19090;DHT22;9677;50.656;13.064;2022-07-06T04:03:47;20.70;41.50
19090;DHT22;9677;50.656;13.064;2022-07-06T04:06:16;20.70;41.50
19090;DHT22;9677;50.656;13.064;2022-07-06T04:08:45;20.70;41.60
19090;DHT22;9677;50.656;13.064;2022-07-06T04:11:13;20.60;41.60
19090;DHT22;9677;50.656;13.064;2022-07-06T04:13:42;20.60;41.80
19090;DHT22;9677;50.656;13.064;2022-07-06T04:16:12;20.60;41.80
19090;DHT22;9677;50.656;13.064;2022-07-06T04:18:41;20.50;41.90
19090;DHT22;9677;50.656;13.064;2022-07-06T04:21:10;20.50;42.00
19090;DHT22;9677;50.656;13.064;2022-07-06T04:23:39;20.50;42.00
19090;DHT22;9677;50.656;13.064;2022-07-06T04:26:09;20.40;41.90
19090;DHT22;9677;50.656;13.064;2022-07-06T04:28:38;20.40;42.00
19090;DHT22;9677;50.656;13.064;2022-07-06T04:31:07;20.40;42.10
19090;DHT22;9677;50.656;13.064;2022-07-06T04:33:37;20.40;42.20
19090;DHT22;9677;50.656;13.064;2022-07-06T04:36:06;20.40;42.40
19090;DHT22;9677;50.656;13.064;2022-07-06T04:38:39;20.30;42.30
19090;DHT22;9677;50.656;13.064;2022-07-06T04:41:10;20.20;42.30
19090;DHT22;9677;50.656;13.064;2022-07-06T04:43:38;20.10;42.40
19090;DHT22;9677;50.656;13.064;2022-07-06T04:46:10;20.10;42.60
19090;DHT22;9677;50.656;13.064;2022-07-06T04:48:42;20.10;42.70
19090;DHT22;9677;50.656;13.064;2022-07-06T04:51:17;20.00;42.80
19090;DHT22;9677;50.656;13.064;2022-07-06T04:53:45;20.00;42.80
19090;DHT22;9677;50.656;13.064;2022-07-06T04:56:14;20.00;42.90
19090;DHT22;9677;50.656;13.064;2022-07-06T04:58:43;19.90;42.90
19090;DHT22;9677;50.656;13.064;2022-07-06T05:01:15;19.90;43.00
19090;DHT22;9677;50.656;13.064;2022-07-06T05:03:45;20.00;43.20
19090;DHT22;9677;50.656;13.064;2022-07-06T05:06:14;19.90;43.30
19090;DHT22;9677;50.656;13.064;2022-07-06T05:08:43;19.90;43.40
19090;DHT22;9677;50.656;13.064;2022-07-06T05:11:11;19.80;43.30
19090;DHT22;9677;50.656;13.064;2022-07-06T05:13:41;19.80;43.50
19090;DHT22;9677;50.656;13.064;2022-07-06T05:16:10;19.80;43.60
19090;DHT22;9677;50.656;13.064;2022-07-06T05:18:38;19.80;43.70
19090;DHT22;9677;50.656;13.064;2022-07-06T05:21:08;19.80;43.80
19090;DHT22;9677;50.656;13.064;2022-07-06T05:23:38;19.80;44.00
19090;DHT22;9677;50.656;13.064;2022-07-06T05:26:06;19.70;43.90
19090;DHT22;9677;50.656;13.064;2022-07-06T05:28:35;19.70;44.00
19090;DHT22;9677;50.656;13.064;2022-07-06T05:31:07;19.80;44.10
19090;DHT22;9677;50.656;13.064;2022-07-06T05:33:35;19.70;44.10
19090;DHT22;9677;50.656;13.064;2022-07-06T05:36:04;19.70;44.20
19090;DHT22;9677;50.656;13.064;2022-07-06T05:38:34;19.70;44.30
19090;DHT22;9677;50.656;13.064;2022-07-06T05:41:03;19.70;44.50
19090;DHT22;9677;50.656;13.064;2022-07-06T05:43:35;19.70;44.50
19090;DHT22;9677;50.656;13.064;2022-07-06T05:46:04;19.70;44.70
19090;DHT22;9677;50.656;13.064;2022-07-06T05:48:34;19.70;44.70
19090;DHT22;9677;50.656;13.064;2022-07-06T05:51:20;19.70;44.70
19090;DHT22;9677;50.656;13.064;2022-07-06T05:53:51;19.70;44.60
19090;DHT22;9677;50.656;13.064;2022-07-06T05:56:20;19.70;44.80
19090;DHT22;9677;50.656;13.064;2022-07-06T05:58:48;19.70;45.00
19090;DHT22;9677;50.656;13.064;2022-07-06T06:01:17;19.80;44.90
19090;DHT22;9677;50.656;13.064;2022-07-06T06:03:54;19.70;45.00
19090;DHT22;9677;50.656;13.064;2022-07-06T06:06:22;19.70;44.90
19090;DHT22;9677;50.656;13.064;2022-07-06T06:08:52;19.70;45.00
19090;DHT22;9677;50.656;13.064;2022-07-06T06:11:21;19.70;45.10
19090;DHT22;9677;50.656;13.064;2022-07-06T06:13:49;19.80;45.00
19090;DHT22;9677;50.656;13.064;2022-07-06T06:16:18;19.80;45.10
19090;DHT22;9677;50.656;13.064;2022-07-06T06:18:47;19.90;45.30
19090;DHT22;9677;50.656;13.064;2022-07-06T06:21:15;19.90;45.30
19090;DHT22;9677;50.656;13.064;2022-07-06T06:23:44;19.90;45.30
19090;DHT22;9677;50.656;13.064;2022-07-06T06:26:13;19.90;45.30
19090;DHT22;9677;50.656;13.064;2022-07-06T06:28:42;20.00;45.70
19090;DHT22;9677;50.656;13.064;2022-07-06T06:31:10;20.10;46.10
19090;DHT22;9677;50.656;13.064;2022-07-06T06:33:39;20.20;45.60
19090;DHT22;9677;50.656;13.064;2022-07-06T06:36:08;20.20;45.70
19090;DHT22;9677;50.656;13.064;2022-07-06T06:38:36;20.30;45.60
19090;DHT22;9677;50.656;13.064;2022-07-06T06:41:05;20.30;45.30
19090;DHT22;9677;50.656;13.064;2022-07-06T06:43:34;20.40;45.30
19090;DHT22;9677;50.656;13.064;2022-07-06T06:46:11;20.50;45.40
19090;DHT22;9677;50.656;13.064;2022-07-06T06:48:39;20.60;45.10
19090;DHT22;9677;50.656;13.064;2022-07-06T06:51:08;20.60;45.00
19090;DHT22;9677;50.656;13.064;2022-07-06T06:53:36;20.60;44.90
19090;DHT22;9677;50.656;13.064;2022-07-06T06:56:06;20.80;45.00
19090;DHT22;9677;50.656;13.064;2022-07-06T06:58:37;20.70;45.40
19090;DHT22;9677;50.656;13.064;2022-07-06T07:01:25;20.70;44.80
19090;DHT22;9677;50.656;13.064;2022-07-06T07:03:54;20.80;44.90
19090;DHT22;9677;50.656;13.064;2022-07-06T07:06:23;20.90;44.90
19090;DHT22;9677;50.656;13.064;2022-07-06T07:08:51;20.90;44.90
19090;DHT22;9677;50.656;13.064;2022-07-06T07:11:19;21.00;44.90
19090;DHT22;9677;50.656;13.064;2022-07-06T07:13:49;21.10;44.80
19090;DHT22;9677;50.656;13.064;2022-07-06T07:16:18;21.10;45.00
19090;DHT22;9677;50.656;13.064;2022-07-06T07:18:46;21.20;44.70
19090;DHT22;9677;50.656;13.064;2022-07-06T07:21:14;21.20;44.50
19090;DHT22;9677;50.656;13.064;2022-07-06T07:23:43;21.30;44.50
19090;DHT22;9677;50.656;13.064;2022-07-06T07:26:11;21.30;44.50
19090;DHT22;9677;50.656;13.064;2022-07-06T07:28:40;21.50;44.60
19090;DHT22;9677;50.656;13.064;2022-07-06T07:31:10;21.40;44.50
19090;DHT22;9677;50.656;13.064;2022-07-06T07:33:38;21.50;44.60
19090;DHT22;9677;50.656;13.064;2022-07-06T07:36:07;21.60;44.60
19090;DHT22;9677;50.656;13.064;2022-07-06T07:38:36;21.70;44.60
19090;DHT22;9677;50.656;13.064;2022-07-06T07:41:04;21.90;44.60
19090;DHT22;9677;50.656;13.064;2022-07-06T07:43:33;21.90;44.50
19090;DHT22;9677;50.656;13.064;2022-07-06T07:46:01;22.00;44.40
19090;DHT22;9677;50.656;13.064;2022-07-06T07:48:31;22.10;44.30
19090;DHT22;9677;50.656;13.064;2022-07-06T07:51:00;22.10;44.20
19090;DHT22;9677;50.656;13.064;2022-07-06T07:53:28;22.30;44.00
19090;DHT22;9677;50.656;13.064;2022-07-06T07:55:56;22.30;43.90
19090;DHT22;9677;50.656;13.064;2022-07-06T07:58:25;22.40;43.90
19090;DHT22;9677;50.656;13.064;2022-07-06T08:00:54;22.50;44.10
19090;DHT22;9677;50.656;13.064;2022-07-06T08:03:22;22.60;44.00
19090;DHT22;9677;50.656;13.064;2022-07-06T08:05:52;22.70;43.90
19090;DHT22;9677;50.656;13.064;2022-07-06T08:08:21;22.80;43.80
19090;DHT22;9677;50.656;13.064;2022-07-06T08:10:50;22.90;43.70
19090;DHT22;9677;50.656;13.064;2022-07-06T08:13:38;23.00;43.60
19090;DHT22;9677;50.656;13.064;2022-07-06T08:16:07;23.10;43.60
19090;DHT22;9677;50.656;13.064;2022-07-06T08:18:36;23.20;43.70
19090;DHT22;9677;50.656;13.064;2022-07-06T08:21:07;23.30;43.60
19090;DHT22;9677;50.656;13.064;2022-07-06T08:23:53;23.50;43.60
19090;DHT22;9677;50.656;13.064;2022-07-06T08:26:22;23.70;43.50
19090;DHT22;9677;50.656;13.064;2022-07-06T08:28:51;23.80;43.00
19090;DHT22;9677;50.656;13.064;2022-07-06T08:31:20;24.00;42.80
19090;DHT22;9677;50.656;13.064;2022-07-06T08:34:08;24.10;42.80
19090;DHT22;9677;50.656;13.064;2022-07-06T08:36:38;24.30;42.50
19090;DHT22;9677;50.656;13.064;2022-07-06T08:39:06;24.30;42.10
19090;DHT22;9677;50.656;13.064;2022-07-06T08:41:36;24.40;41.90
19090;DHT22;9677;50.656;13.064;2022-07-06T08:44:06;24.50;41.80
19090;DHT22;9677;50.656;13.064;2022-07-06T08:46:38;24.50;41.80
19090;DHT22;9677;50.656;13.064;2022-07-06T08:49:08;24.60;41.60
19090;DHT22;9677;50.656;13.064;2022-07-06T08:51:42;24.70;41.90
19090;DHT22;9677;50.656;13.064;2022-07-06T08:54:11;24.90;41.80
19090;DHT22;9677;50.656;13.064;2022-07-06T08:56:40;25.00;41.60
19090;DHT22;9677;50.656;13.064;2022-07-06T08:59:14;25.10;41.20
19090;DHT22;9677;50.656;13.064;2022-07-06T09:01:44;25.20;40.90
19090;DHT22;9677;50.656;13.064;2022-07-06T09:04:15;25.30;40.80
19090;DHT22;9677;50.656;13.064;2022-07-06T09:06:46;25.30;40.90
19090;DHT22;9677;50.656;13.064;2022-07-06T09:09:19;25.30;40.90
19090;DHT22;9677;50.656;13.064;2022-07-06T09:11:49;25.40;41.00
19090;DHT22;9677;50.656;13.064;2022-07-06T09:14:18;25.50;41.10
19090;DHT22;9677;50.656;13.064;2022-07-06T09:16:51;25.70;40.70
19090;DHT22;9677;50.656;13.064;2022-07-06T09:19:20;25.70;40.40
19090;DHT22;9677;50.656;13.064;2022-07-06T09:21:50;25.80;39.90
19090;DHT22;9677;50.656;13.064;2022-07-06T09:24:18;25.80;40.10
19090;DHT22;9677;50.656;13.064;2022-07-06T09:26:48;25.80;40.00
19090;DHT22;9677;50.656;13.064;2022-07-06T09:29:16;25.80;40.10
19090;DHT22;9677;50.656;13.064;2022-07-06T09:31:56;25.90;40.30
19090;DHT22;9677;50.656;13.064;2022-07-06T09:34:40;26.20;40.30
19090;DHT22;9677;50.656;13.064;2022-07-06T09:37:11;26.10;40.30
19090;DHT22;9677;50.656;13.064;2022-07-06T09:39:42;26.10;40.00
19090;DHT22;9677;50.656;13.064;2022-07-06T09:42:11;26.20;39.60
19090;DHT22;9677;50.656;13.064;2022-07-06T09:44:41;26.20;39.60
19090;DHT22;9677;50.656;13.064;2022-07-06T09:47:10;26.30;39.40
19090;DHT22;9677;50.656;13.064;2022-07-06T09:49:40;26.30;39.40
19090;DHT22;9677;50.656;13.064;2022-07-06T09:52:11;26.40;39.20
19090;DHT22;9677;50.656;13.064;2022-07-06T09:54:40;26.40;39.00
19090;DHT22;9677;50.656;13.064;2022-07-06T09:57:09;26.40;38.90
19090;DHT22;9677;50.656;13.064;2022-07-06T09:59:38;26.40;38.90
19090;DHT22;9677;50.656;13.064;2022-07-06T10:02:07;26.50;38.70
19090;DHT22;9677;50.656;13.064;2022-07-06T10:04:36;26.50;38.60
19090;DHT22;9677;50.656;13.064;2022-07-06T10:07:06;26.60;38.70
19090;DHT22;9677;50.656;13.064;2022-07-06T10:09:37;26.70;39.00
19090;DHT22;9677;50.656;13.064;2022-07-06T10:12:09;26.80;38.70
19090;DHT22;9677;50.656;13.064;2022-07-06T10:14:40;26.90;37.90
19090;DHT22;9677;50.656;13.064;2022-07-06T10:17:17;27.10;38.20
19090;DHT22;9677;50.656;13.064;2022-07-06T10:19:47;27.10;38.20
19090;DHT22;9677;50.656;13.064;2022-07-06T10:22:15;27.20;37.90
19090;DHT22;9677;50.656;13.064;2022-07-06T10:24:47;27.30;37.80
19090;DHT22;9677;50.656;13.064;2022-07-06T10:27:17;27.30;37.20
19090;DHT22;9677;50.656;13.064;2022-07-06T10:29:45;27.40;38.00
19090;DHT22;9677;50.656;13.064;2022-07-06T10:32:18;27.50;37.50
19090;DHT22;9677;50.656;13.064;2022-07-06T10:34:47;27.70;37.10
19090;DHT22;9677;50.656;13.064;2022-07-06T10:37:22;27.80;37.30
19090;DHT22;9677;50.656;13.064;2022-07-06T10:39:53;27.80;36.80
19090;DHT22;9677;50.656;13.064;2022-07-06T10:42:43;27.90;36.80
19090;DHT22;9677;50.656;13.064;2022-07-06T10:45:14;28.00;36.80
19090;DHT22;9677;50.656;13.064;2022-07-06T10:47:47;28.20;36.80
19090;DHT22;9677;50.656;13.064;2022-07-06T10:50:18;28.30;36.90
19090;DHT22;9677;50.656;13.064;2022-07-06T10:52:58;28.50;36.90
19090;DHT22;9677;50.656;13.064;2022-07-06T10:55:30;28.60;36.00
19090;DHT22;9677;50.656;13.064;2022-07-06T10:58:00;28.70;35.80
19090;DHT22;9677;50.656;13.064;2022-07-06T11:00:50;28.80;36.10
19090;DHT22;9677;50.656;13.064;2022-07-06T11:03:30;28.90;35.40
19090;DHT22;9677;50.656;13.064;2022-07-06T11:06:02;29.00;35.00
19090;DHT22;9677;50.656;13.064;2022-07-06T11:08:53;29.10;35.70
19090;DHT22;9677;50.656;13.064;2022-07-06T11:11:25;29.30;35.50
19090;DHT22;9677;50.656;13.064;2022-07-06T11:14:06;29.40;35.60
19090;DHT22;9677;50.656;13.064;2022-07-06T11:16:37;29.50;35.50
19090;DHT22;9677;50.656;13.064;2022-07-06T11:19:11;29.60;35.10
19090;DHT22;9677;50.656;13.064;2022-07-06T11:21:45;29.70;34.40
19090;DHT22;9677;50.656;13.064;2022-07-06T11:24:16;29.70;34.40
19090;DHT22;9677;50.656;13.064;2022-07-06T11:26:47;29.80;34.00
19090;DHT22;9677;50.656;13.064;2022-07-06T11:29:19;29.80;34.00
19090;DHT22;9677;50.656;13.064;2022-07-06T11:31:51;29.70;33.80
19090;DHT22;9677;50.656;13.064;2022-07-06T11:34:22;29.70;34.00
19090;DHT22;9677;50.656;13.064;2022-07-06T11:36:54;29.70;34.30
19090;DHT22;9677;50.656;13.064;2022-07-06T11:39:26;29.70;34.10
19090;DHT22;9677;50.656;13.064;2022-07-06T11:41:57;29.70;34.10
19090;DHT22;9677;50.656;13.064;2022-07-06T11:44:27;29.80;34.20
19090;DHT22;9677;50.656;13.064;2022-07-06T11:46:56;29.80;33.70
19090;DHT22;9677;50.656;13.064;2022-07-06T11:49:27;29.80;33.80
19090;DHT22;9677;50.656;13.064;2022-07-06T11:51:56;29.80;33.50
19090;DHT22;9677;50.656;13.064;2022-07-06T11:54:25;29.70;33.60
19090;DHT22;9677;50.656;13.064;2022-07-06T11:56:57;29.70;33.70
19090;DHT22;9677;50.656;13.064;2022-07-06T11:59:27;29.70;34.00
19090;DHT22;9677;50.656;13.064;2022-07-06T12:02:00;29.70;33.80
19090;DHT22;9677;50.656;13.064;2022-07-06T12:04:29;29.80;33.00
19090;DHT22;9677;50.656;13.064;2022-07-06T12:07:00;29.80;33.40
19090;DHT22;9677;50.656;13.064;2022-07-06T12:09:30;29.80;33.50
19090;DHT22;9677;50.656;13.064;2022-07-06T12:12:01;29.90;33.60
19090;DHT22;9677;50.656;13.064;2022-07-06T12:14:36;30.00;33.40
19090;DHT22;9677;50.656;13.064;2022-07-06T12:17:06;30.00;33.20
19090;DHT22;9677;50.656;13.064;2022-07-06T12:19:36;30.10;33.30
19090;DHT22;9677;50.656;13.064;2022-07-06T12:22:05;30.10;32.90
19090;DHT22;9677;50.656;13.064;2022-07-06T12:24:35;30.20;32.90
19090;DHT22;9677;50.656;13.064;2022-07-06T12:27:14;30.20;32.90
19090;DHT22;9677;50.656;13.064;2022-07-06T12:29:44;30.20;32.30
19090;DHT22;9677;50.656;13.064;2022-07-06T12:32:16;30.20;32.40
19090;DHT22;9677;50.656;13.064;2022-07-06T12:34:45;30.20;31.90
19090;DHT22;9677;50.656;13.064;2022-07-06T12:37:14;30.10;31.70
19090;DHT22;9677;50.656;13.064;2022-07-06T12:39:44;30.10;32.00
19090;DHT22;9677;50.656;13.064;2022-07-06T12:42:17;30.00;32.10
19090;DHT22;9677;50.656;13.064;2022-07-06T12:44:48;30.00;32.20
19090;DHT22;9677;50.656;13.064;2022-07-06T12:47:19;30.00;33.00
19090;DHT22;9677;50.656;13.064;2022-07-06T12:50:04;30.00;32.10
19090;DHT22;9677;50.656;13.064;2022-07-06T12:52:33;30.00;31.80
19090;DHT22;9677;50.656;13.064;2022-07-06T12:55:04;30.10;32.00
19090;DHT22;9677;50.656;13.064;2022-07-06T12:57:47;30.00;31.80
19090;DHT22;9677;50.656;13.064;2022-07-06T13:00:18;30.10;31.40
19090;DHT22;9677;50.656;13.064;2022-07-06T13:02:47;30.10;31.50
19090;DHT22;9677;50.656;13.064;2022-07-06T13:05:36;30.10;31.90
19090;DHT22;9677;50.656;13.064;2022-07-06T13:08:06;30.20;31.70
19090;DHT22;9677;50.656;13.064;2022-07-06T13:10:35;30.20;31.70
19090;DHT22;9677;50.656;13.064;2022-07-06T13:13:08;30.20;31.80
19090;DHT22;9677;50.656;13.064;2022-07-06T13:15:36;30.20;31.70
19090;DHT22;9677;50.656;13.064;2022-07-06T13:18:05;30.30;31.60
19090;DHT22;9677;50.656;13.064;2022-07-06T13:20:39;30.40;31.60
19090;DHT22;9677;50.656;13.064;2022-07-06T13:23:08;30.40;31.40
19090;DHT22;9677;50.656;13.064;2022-07-06T13:25:36;30.40;31.50
19090;DHT22;9677;50.656;13.064;2022-07-06T13:28:06;30.50;31.60
19090;DHT22;9677;50.656;13.064;2022-07-06T13:30:34;30.60;31.50
19090;DHT22;9677;50.656;13.064;2022-07-06T13:33:03;30.70;31.10
19090;DHT22;9677;50.656;13.064;2022-07-06T13:35:32;30.70;31.00
19090;DHT22;9677;50.656;13.064;2022-07-06T13:38:00;30.70;30.90
19090;DHT22;9677;50.656;13.064;2022-07-06T13:40:29;30.80;31.00
19090;DHT22;9677;50.656;13.064;2022-07-06T13:42:57;30.80;30.90
19090;DHT22;9677;50.656;13.064;2022-07-06T13:45:27;30.90;31.00
19090;DHT22;9677;50.656;13.064;2022-07-06T13:47:56;30.90;30.80
19090;DHT22;9677;50.656;13.064;2022-07-06T13:50:25;30.90;30.70
19090;DHT22;9677;50.656;13.064;2022-07-06T13:52:54;30.90;30.20
19090;DHT22;9677;50.656;13.064;2022-07-06T13:55:23;30.90;30.00
19090;DHT22;9677;50.656;13.064;2022-07-06T13:57:51;30.90;30.00
19090;DHT22;9677;50.656;13.064;2022-07-06T14:00:20;30.80;30.20
19090;DHT22;9677;50.656;13.064;2022-07-06T14:02:49;30.80;30.20
19090;DHT22;9677;50.656;13.064;2022-07-06T14:05:18;30.70;30.00
19090;DHT22;9677;50.656;13.064;2022-07-06T14:07:46;30.70;29.90
19090;DHT22;9677;50.656;13.064;2022-07-06T14:10:15;30.60;29.80
19090;DHT22;9677;50.656;13.064;2022-07-06T14:12:43;30.50;29.80
19090;DHT22;9677;50.656;13.064;2022-07-06T14:15:11;30.40;29.80
19090;DHT22;9677;50.656;13.064;2022-07-06T14:17:40;30.30;29.80
19090;DHT22;9677;50.656;13.064;2022-07-06T14:20:11;30.20;29.90
19090;DHT22;9677;50.656;13.064;2022-07-06T14:22:39;30.10;30.00
19090;DHT22;9677;50.656;13.064;2022-07-06T14:25:08;30.10;30.20
19090;DHT22;9677;50.656;13.064;2022-07-06T14:27:37;30.00;30.10
19090;DHT22;9677;50.656;13.064;2022-07-06T14:30:08;29.90;30.00
19090;DHT22;9677;50.656;13.064;2022-07-06T14:32:37;29.90;30.20
19090;DHT22;9677;50.656;13.064;2022-07-06T14:35:06;29.90;30.30
19090;DHT22;9677;50.656;13.064;2022-07-06T14:37:36;29.90;30.50
19090;DHT22;9677;50.656;13.064;2022-07-06T14:40:06;29.90;30.30
19090;DHT22;9677;50.656;13.064;2022-07-06T14:42:35;29.90;30.50
19090;DHT22;9677;50.656;13.064;2022-07-06T14:45:03;30.00;30.60
19090;DHT22;9677;50.656;13.064;2022-07-06T14:47:32;30.00;30.50
19090;DHT22;9677;50.656;13.064;2022-07-06T14:50:03;30.00;30.40
19090;DHT22;9677;50.656;13.064;2022-07-06T14:52:32;30.00;30.30
19090;DHT22;9677;50.656;13.064;2022-07-06T14:55:02;30.00;30.10
19090;DHT22;9677;50.656;13.064;2022-07-06T14:57:39;30.00;30.60
19090;DHT22;9677;50.656;13.064;2022-07-06T15:00:09;30.00;29.90
19090;DHT22;9677;50.656;13.064;2022-07-06T15:02:38;30.00;29.90
19090;DHT22;9677;50.656;13.064;2022-07-06T15:05:07;29.90;29.90
19090;DHT22;9677;50.656;13.064;2022-07-06T15:07:36;29.90;30.00
19090;DHT22;9677;50.656;13.064;2022-07-06T15:10:07;29.80;29.90
19090;DHT22;9677;50.656;13.064;2022-07-06T15:12:37;29.80;29.60
19090;DHT22;9677;50.656;13.064;2022-07-06T15:15:06;29.70;29.50
19090;DHT22;9677;50.656;13.064;2022-07-06T15:17:55;29.50;29.50
19090;DHT22;9677;50.656;13.064;2022-07-06T15:20:23;29.40;29.40
19090;DHT22;9677;50.656;13.064;2022-07-06T15:22:51;29.20;29.60
19090;DHT22;9677;50.656;13.064;2022-07-06T15:25:21;29.10;29.90
19090;DHT22;9677;50.656;13.064;2022-07-06T15:27:51;29.10;30.00
19090;DHT22;9677;50.656;13.064;2022-07-06T15:30:20;29.10;30.30
19090;DHT22;9677;50.656;13.064;2022-07-06T15:32:56;29.10;30.50
19090;DHT22;9677;50.656;13.064;2022-07-06T15:35:25;29.10;30.60
19090;DHT22;9677;50.656;13.064;2022-07-06T15:37:54;29.10;30.60
19090;DHT22;9677;50.656;13.064;2022-07-06T15:40:23;29.20;30.30
19090;DHT22;9677;50.656;13.064;2022-07-06T15:42:52;29.30;30.40
19090;DHT22;9677;50.656;13.064;2022-07-06T15:45:21;29.40;30.40
19090;DHT22;9677;50.656;13.064;2022-07-06T15:47:52;29.30;30.50